createdAt,value
2018-06-19T15:41:46.801Z,1.70
2018-06-19T15:44:16.134Z,1.73
2018-06-19T15:46:44.529Z,1.40
2018-06-19T15:49:12.895Z,1.40
2018-06-19T15:51:41.380Z,2.10
2018-06-19T15:54:09.783Z,1.60
2018-06-19T15:56:38.282Z,1.50
2018-06-19T15:59:06.691Z,1.60
2018-06-19T16:01:35.038Z,1.50
2018-06-19T16:04:03.518Z,1.80
2018-06-19T16:06:31.985Z,1.80
2018-06-19T16:09:00.486Z,1.60
2018-06-19T16:11:28.912Z,1.67
2018-06-19T16:13:57.433Z,1.87
2018-06-19T16:16:25.832Z,2.23
2018-06-19T16:18:54.235Z,2.10
2018-06-19T16:21:22.700Z,1.80
2018-06-19T16:23:51.038Z,1.87
2018-06-19T16:26:19.416Z,2.13
2018-06-19T16:28:47.771Z,1.90
2018-06-19T16:31:16.169Z,1.80
2018-06-19T16:33:44.577Z,1.70
2018-06-19T16:36:12.979Z,1.80
2018-06-19T16:38:41.374Z,1.90
2018-06-19T16:41:09.770Z,1.80
2018-06-19T16:43:38.187Z,1.80
2018-06-19T16:46:06.618Z,1.60
2018-06-19T16:48:35.055Z,1.60
2018-06-19T16:51:03.482Z,1.70
2018-06-19T16:55:01.196Z,1.60
2018-06-19T16:57:29.583Z,1.50
2018-06-19T16:59:57.953Z,1.87
2018-06-19T17:02:26.416Z,2.00
2018-06-19T17:04:54.801Z,1.80
2018-06-19T17:07:23.214Z,1.83
2018-06-19T17:09:51.595Z,1.83
2018-06-19T17:12:20.007Z,1.83
2018-06-19T17:14:48.428Z,1.80
2018-06-19T17:17:16.877Z,2.10
2018-06-19T17:19:45.426Z,1.70
2018-06-19T17:22:13.826Z,1.80
2018-06-19T17:24:42.321Z,2.20
2018-06-19T17:27:10.819Z,2.30
2018-06-19T17:29:39.388Z,2.60
2018-06-19T17:32:07.790Z,2.20
2018-06-19T17:34:36.181Z,2.20
2018-06-19T17:37:04.712Z,2.27
2018-06-19T17:39:33.165Z,2.53
2018-06-19T17:42:01.571Z,2.30
2018-06-19T17:44:30.007Z,2.00
2018-06-19T17:46:58.417Z,2.30
2018-06-19T17:49:26.833Z,7.43
2018-06-19T17:51:56.126Z,9.03
2018-06-19T17:54:24.565Z,4.83
2018-06-19T17:56:52.971Z,8.17
2018-06-19T17:59:21.396Z,3.10
2018-06-19T18:01:50.070Z,2.40
2018-06-19T18:04:18.489Z,2.83
2018-06-19T18:06:46.902Z,2.60
2018-06-19T18:09:15.388Z,2.23
2018-06-19T18:11:43.798Z,5.07
2018-06-19T18:14:13.234Z,2.07
2018-06-19T18:16:41.593Z,1.80
2018-06-19T18:19:10.012Z,1.70
2018-06-19T18:21:38.502Z,2.00
2018-06-19T18:24:06.938Z,1.90
2018-06-19T18:26:35.486Z,2.13
2018-06-19T18:29:03.935Z,1.97
2018-06-19T18:31:32.349Z,2.10
2018-06-19T18:34:00.771Z,2.00
2018-06-19T18:36:30.827Z,2.03
2018-06-19T18:38:59.681Z,2.20
2018-06-19T18:41:28.347Z,1.77
2018-06-19T18:43:56.765Z,2.57
2018-06-19T18:46:25.151Z,2.60
2018-06-19T18:48:53.527Z,2.30
2018-06-19T18:51:21.911Z,1.90
2018-06-19T18:53:50.366Z,2.10
2018-06-19T18:56:18.715Z,2.60
2018-06-19T18:58:47.066Z,2.20
2018-06-19T19:01:15.712Z,2.77
2018-06-19T19:03:44.091Z,2.50
2018-06-19T19:06:12.486Z,2.47
2018-06-19T19:08:40.844Z,2.23
2018-06-19T19:11:10.793Z,2.30
2018-06-19T19:13:39.227Z,2.77
2018-06-19T19:16:13.164Z,2.80
2018-06-19T19:18:47.006Z,2.23
2018-06-19T19:21:16.735Z,2.70
2018-06-19T19:23:45.174Z,2.67
2018-06-19T19:26:13.709Z,2.60
2018-06-19T19:28:47.871Z,2.47
2018-06-19T19:31:17.081Z,2.90
2018-06-19T19:33:45.868Z,3.50
2018-06-19T19:36:19.827Z,2.57
2018-06-19T19:38:53.950Z,3.20
2018-06-19T19:41:23.491Z,3.30
2018-06-19T19:43:52.215Z,3.20
2018-06-19T19:46:26.434Z,2.70
2018-06-19T19:48:57.918Z,3.00
2018-06-19T19:51:29.007Z,3.87
2018-06-19T19:53:57.797Z,4.20
2018-06-19T19:56:31.726Z,4.20
2018-06-19T19:59:01.280Z,3.83
2018-06-19T20:01:43.310Z,3.80
2018-06-19T20:06:52.533Z,3.90
2018-06-19T20:09:54.381Z,4.33
2018-06-19T20:15:15.626Z,4.93
2018-06-19T20:23:36.786Z,3.07
2018-06-19T20:32:01.177Z,3.77
2018-06-19T20:34:29.881Z,3.70
2018-06-19T20:36:58.047Z,4.33
2018-06-19T20:39:26.270Z,4.27
2018-06-19T20:41:54.529Z,3.80
2018-06-19T20:44:22.717Z,4.20
2018-06-19T20:46:50.886Z,3.57
2018-06-19T20:49:19.088Z,3.57
2018-06-19T20:51:47.602Z,3.70
2018-06-19T20:54:16.091Z,3.90
2018-06-19T20:56:44.597Z,3.40
2018-06-19T20:59:13.070Z,3.57
2018-06-19T21:01:41.608Z,3.80
2018-06-19T21:04:10.086Z,4.33
2018-06-19T21:06:38.631Z,3.57
2018-06-19T21:09:08.016Z,3.57
2018-06-19T21:11:36.538Z,3.80
2018-06-19T21:14:04.995Z,4.67
2018-06-19T21:16:33.510Z,4.00
2018-06-19T21:19:02.017Z,3.87
2018-06-19T21:21:30.538Z,4.17
2018-06-19T21:23:58.978Z,3.60
2018-06-19T21:26:27.489Z,4.17
2018-06-19T21:28:55.928Z,4.00
2018-06-19T21:31:24.398Z,3.93
2018-06-19T21:33:52.838Z,4.43
2018-06-19T21:36:21.096Z,3.87
2018-06-19T21:38:49.578Z,3.70
2018-06-19T21:41:17.718Z,4.30
2018-06-19T21:43:45.891Z,3.77
2018-06-19T21:46:14.336Z,3.40
2018-06-19T21:48:42.509Z,4.20
2018-06-19T21:51:10.957Z,4.17
2018-06-19T21:53:39.122Z,4.03
2018-06-19T21:56:07.295Z,4.07
2018-06-19T21:58:35.752Z,4.40
2018-06-19T22:01:03.934Z,3.80
2018-06-19T22:03:32.424Z,3.90
2018-06-19T22:06:00.868Z,4.40
2018-06-19T22:08:49.831Z,4.20
2018-06-19T22:11:18.299Z,4.03
2018-06-19T22:13:47.034Z,4.00
2018-06-19T22:16:15.414Z,4.50
2018-06-19T22:18:43.879Z,4.33
2018-06-19T22:21:12.351Z,4.47
2018-06-19T22:23:40.823Z,4.50
2018-06-19T22:26:09.278Z,4.90
2018-06-19T22:28:37.739Z,4.23
2018-06-19T22:31:06.299Z,3.93
2018-06-19T22:33:34.783Z,3.73
2018-06-19T22:36:02.948Z,4.10
2018-06-19T22:38:31.145Z,3.90
2018-06-19T22:40:59.568Z,4.10
2018-06-19T22:43:28.122Z,4.37
2018-06-19T22:45:56.619Z,3.90
2018-06-19T22:48:24.787Z,4.40
2018-06-19T22:50:53.243Z,4.67
2018-06-19T22:53:21.711Z,4.60
2018-06-19T22:55:50.337Z,4.90
2018-06-19T22:58:18.814Z,4.70
2018-06-19T23:00:47.275Z,5.10
2018-06-19T23:03:15.509Z,4.53
2018-06-19T23:05:44.023Z,5.00
2018-06-19T23:08:12.559Z,5.00
2018-06-19T23:10:41.011Z,5.27
2018-06-19T23:13:09.152Z,5.17
2018-06-19T23:15:37.376Z,5.10
2018-06-19T23:18:05.810Z,5.50
2018-06-19T23:20:34.287Z,5.43
2018-06-19T23:23:02.812Z,5.67
2018-06-19T23:25:31.291Z,4.97
2018-06-19T23:27:59.439Z,5.10
2018-06-19T23:30:27.911Z,6.30
2018-06-19T23:32:56.462Z,5.77
2018-06-19T23:35:24.642Z,5.07
2018-06-19T23:37:52.798Z,5.23
2018-06-19T23:40:21.346Z,4.90
2018-06-19T23:42:49.539Z,5.17
2018-06-19T23:45:18.011Z,5.50
2018-06-19T23:47:46.465Z,5.40
2018-06-19T23:50:14.933Z,5.73
2018-06-19T23:52:43.401Z,5.57
2018-06-19T23:55:11.994Z,5.87
2018-06-19T23:57:40.133Z,5.80
